sensor_id;sensor_type;location;lat;lon;timestamp;P1;durP1;ratioP1;P2;durP2;ratioP2
24279;SDS011;12395;42.808;23.408;2022-09-14T00:00:55;7.35;;;4.85;;
24279;SDS011;12395;42.808;23.408;2022-09-14T00:03:20;8.02;;;4.85;;
24279;SDS011;12395;42.808;23.408;2022-09-14T00:05:46;5.90;;;4.55;;
24279;SDS011;12395;42.808;23.408;2022-09-14T00:08:12;7.43;;;5.10;;
24279;SDS011;12395;42.808;23.408;2022-09-14T00:10:38;7.93;;;4.68;;
24279;SDS011;12395;42.808;23.408;2022-09-14T00:13:05;6.47;;;5.03;;
24279;SDS011;12395;42.808;23.408;2022-09-14T00:15:34;6.88;;;5.07;;
24279;SDS011;12395;42.808;23.408;2022-09-14T00:18:03;7.55;;;5.38;;
24279;SDS011;12395;42.808;23.408;2022-09-14T00:20:30;6.00;;;4.43;;
24279;SDS011;12395;42.808;23.408;2022-09-14T00:22:56;6.82;;;4.72;;
24279;SDS011;12395;42.808;23.408;2022-09-14T00:25:22;7.70;;;5.35;;
24279;SDS011;12395;42.808;23.408;2022-09-14T00:27:47;6.65;;;4.97;;
24279;SDS011;12395;42.808;23.408;2022-09-14T00:30:13;6.00;;;4.55;;
24279;SDS011;12395;42.808;23.408;2022-09-14T00:32:38;7.10;;;4.55;;
24279;SDS011;12395;42.808;23.408;2022-09-14T00:35:04;7.68;;;4.75;;
24279;SDS011;12395;42.808;23.408;2022-09-14T00:37:29;7.68;;;5.28;;
24279;SDS011;12395;42.808;23.408;2022-09-14T00:39:55;7.85;;;5.43;;
24279;SDS011;12395;42.808;23.408;2022-09-14T00:42:20;6.40;;;5.13;;
24279;SDS011;12395;42.808;23.408;2022-09-14T00:47:11;6.50;;;4.85;;
24279;SDS011;12395;42.808;23.408;2022-09-14T00:49:38;6.50;;;4.68;;
24279;SDS011;12395;42.808;23.408;2022-09-14T00:54:40;6.55;;;4.82;;
24279;SDS011;12395;42.808;23.408;2022-09-14T00:57:09;7.03;;;5.20;;
24279;SDS011;12395;42.808;23.408;2022-09-14T00:59:36;8.27;;;5.10;;
24279;SDS011;12395;42.808;23.408;2022-09-14T01:02:04;6.28;;;4.90;;
24279;SDS011;12395;42.808;23.408;2022-09-14T01:04:31;7.00;;;5.43;;
24279;SDS011;12395;42.808;23.408;2022-09-14T01:09:49;7.35;;;5.15;;
24279;SDS011;12395;42.808;23.408;2022-09-14T01:15:24;7.68;;;5.50;;
24279;SDS011;12395;42.808;23.408;2022-09-14T01:18:08;7.10;;;5.32;;
24279;SDS011;12395;42.808;23.408;2022-09-14T01:20:38;8.00;;;5.50;;
24279;SDS011;12395;42.808;23.408;2022-09-14T01:25:54;7.75;;;5.90;;
24279;SDS011;12395;42.808;23.408;2022-09-14T01:28:48;7.90;;;5.53;;
24279;SDS011;12395;42.808;23.408;2022-09-14T01:34:36;7.90;;;5.60;;
24279;SDS011;12395;42.808;23.408;2022-09-14T01:37:08;9.02;;;5.72;;
24279;SDS011;12395;42.808;23.408;2022-09-14T01:39:40;7.07;;;5.70;;
24279;SDS011;12395;42.808;23.408;2022-09-14T01:42:08;7.57;;;5.60;;
24279;SDS011;12395;42.808;23.408;2022-09-14T01:44:37;7.68;;;5.70;;
24279;SDS011;12395;42.808;23.408;2022-09-14T01:50:14;7.57;;;5.65;;
24279;SDS011;12395;42.808;23.408;2022-09-14T01:52:48;8.32;;;6.10;;
24279;SDS011;12395;42.808;23.408;2022-09-14T01:55:24;8.20;;;5.90;;
24279;SDS011;12395;42.808;23.408;2022-09-14T02:00:38;9.23;;;6.80;;
24279;SDS011;12395;42.808;23.408;2022-09-14T02:03:30;8.30;;;6.50;;
24279;SDS011;12395;42.808;23.408;2022-09-14T02:05:58;8.65;;;6.32;;
24279;SDS011;12395;42.808;23.408;2022-09-14T02:08:31;8.43;;;6.20;;
24279;SDS011;12395;42.808;23.408;2022-09-14T02:10:58;8.77;;;6.20;;
24279;SDS011;12395;42.808;23.408;2022-09-14T02:13:24;9.07;;;6.60;;
24279;SDS011;12395;42.808;23.408;2022-09-14T02:15:50;7.75;;;6.15;;
24279;SDS011;12395;42.808;23.408;2022-09-14T02:18:16;8.27;;;6.28;;
24279;SDS011;12395;42.808;23.408;2022-09-14T02:20:44;7.93;;;6.55;;
24279;SDS011;12395;42.808;23.408;2022-09-14T02:23:14;11.68;;;7.18;;
24279;SDS011;12395;42.808;23.408;2022-09-14T02:25:41;9.02;;;6.55;;
24279;SDS011;12395;42.808;23.408;2022-09-14T02:28:06;8.98;;;7.03;;
24279;SDS011;12395;42.808;23.408;2022-09-14T02:30:36;9.55;;;7.25;;
24279;SDS011;12395;42.808;23.408;2022-09-14T02:36:33;8.25;;;6.32;;
24279;SDS011;12395;42.808;23.408;2022-09-14T02:39:17;9.65;;;7.10;;
24279;SDS011;12395;42.808;23.408;2022-09-14T02:42:53;8.68;;;6.25;;
24279;SDS011;12395;42.808;23.408;2022-09-14T02:44:52;8.80;;;6.45;;
24279;SDS011;12395;42.808;23.408;2022-09-14T02:50:23;8.43;;;6.38;;
24279;SDS011;12395;42.808;23.408;2022-09-14T02:53:12;9.90;;;7.30;;
24279;SDS011;12395;42.808;23.408;2022-09-14T02:56:00;9.80;;;7.17;;
24279;SDS011;12395;42.808;23.408;2022-09-14T02:58:38;10.43;;;7.45;;
24279;SDS011;12395;42.808;23.408;2022-09-14T03:01:06;10.20;;;7.43;;
24279;SDS011;12395;42.808;23.408;2022-09-14T03:03:33;10.38;;;7.65;;
24279;SDS011;12395;42.808;23.408;2022-09-14T03:05:58;11.00;;;7.05;;
24279;SDS011;12395;42.808;23.408;2022-09-14T03:08:24;11.00;;;7.13;;
24279;SDS011;12395;42.808;23.408;2022-09-14T03:10:50;8.88;;;6.80;;
24279;SDS011;12395;42.808;23.408;2022-09-14T03:13:16;10.40;;;7.75;;
24279;SDS011;12395;42.808;23.408;2022-09-14T03:15:42;10.50;;;7.78;;
24279;SDS011;12395;42.808;23.408;2022-09-14T03:18:07;9.40;;;7.55;;
24279;SDS011;12395;42.808;23.408;2022-09-14T03:20:33;9.52;;;7.03;;
24279;SDS011;12395;42.808;23.408;2022-09-14T03:23:00;11.98;;;7.70;;
24279;SDS011;12395;42.808;23.408;2022-09-14T03:25:26;12.13;;;6.85;;
24279;SDS011;12395;42.808;23.408;2022-09-14T03:27:52;9.95;;;7.75;;
24279;SDS011;12395;42.808;23.408;2022-09-14T03:32:45;12.10;;;7.80;;
24279;SDS011;12395;42.808;23.408;2022-09-14T03:35:11;10.43;;;7.43;;
24279;SDS011;12395;42.808;23.408;2022-09-14T03:37:39;10.23;;;7.47;;
24279;SDS011;12395;42.808;23.408;2022-09-14T03:40:06;9.53;;;7.30;;
24279;SDS011;12395;42.808;23.408;2022-09-14T03:42:32;10.25;;;7.93;;
24279;SDS011;12395;42.808;23.408;2022-09-14T03:44:57;11.13;;;8.13;;
24279;SDS011;12395;42.808;23.408;2022-09-14T03:47:23;11.82;;;8.32;;
24279;SDS011;12395;42.808;23.408;2022-09-14T03:49:48;10.23;;;7.82;;
24279;SDS011;12395;42.808;23.408;2022-09-14T03:52:14;12.00;;;7.95;;
24279;SDS011;12395;42.808;23.408;2022-09-14T03:54:40;10.23;;;7.40;;
24279;SDS011;12395;42.808;23.408;2022-09-14T03:57:06;10.93;;;7.88;;
24279;SDS011;12395;42.808;23.408;2022-09-14T03:59:32;10.07;;;7.22;;
24279;SDS011;12395;42.808;23.408;2022-09-14T04:01:58;10.50;;;7.80;;
24279;SDS011;12395;42.808;23.408;2022-09-14T04:04:24;11.50;;;8.35;;
24279;SDS011;12395;42.808;23.408;2022-09-14T04:06:50;11.57;;;8.13;;
24279;SDS011;12395;42.808;23.408;2022-09-14T04:09:16;12.73;;;8.30;;
24279;SDS011;12395;42.808;23.408;2022-09-14T04:11:43;10.50;;;8.10;;
24279;SDS011;12395;42.808;23.408;2022-09-14T04:14:09;12.05;;;7.88;;
24279;SDS011;12395;42.808;23.408;2022-09-14T04:16:34;10.68;;;7.55;;
24279;SDS011;12395;42.808;23.408;2022-09-14T04:18:59;10.60;;;8.18;;
24279;SDS011;12395;42.808;23.408;2022-09-14T04:21:25;10.93;;;8.02;;
24279;SDS011;12395;42.808;23.408;2022-09-14T04:23:51;10.93;;;7.90;;
24279;SDS011;12395;42.808;23.408;2022-09-14T04:26:18;11.95;;;7.72;;
24279;SDS011;12395;42.808;23.408;2022-09-14T04:28:45;10.55;;;7.30;;
24279;SDS011;12395;42.808;23.408;2022-09-14T04:31:11;10.23;;;7.93;;
24279;SDS011;12395;42.808;23.408;2022-09-14T04:33:38;12.00;;;8.13;;
24279;SDS011;12395;42.808;23.408;2022-09-14T04:36:06;9.55;;;7.10;;
24279;SDS011;12395;42.808;23.408;2022-09-14T04:38:33;9.80;;;7.57;;
24279;SDS011;12395;42.808;23.408;2022-09-14T04:41:02;11.00;;;8.52;;
24279;SDS011;12395;42.808;23.408;2022-09-14T04:43:29;11.40;;;8.52;;
24279;SDS011;12395;42.808;23.408;2022-09-14T04:45:59;11.88;;;8.48;;
24279;SDS011;12395;42.808;23.408;2022-09-14T04:48:26;13.18;;;8.38;;
24279;SDS011;12395;42.808;23.408;2022-09-14T04:50:52;10.88;;;8.27;;
24279;SDS011;12395;42.808;23.408;2022-09-14T04:53:18;10.88;;;8.32;;
24279;SDS011;12395;42.808;23.408;2022-09-14T04:55:43;11.75;;;8.10;;
24279;SDS011;12395;42.808;23.408;2022-09-14T04:58:08;11.02;;;8.02;;
24279;SDS011;12395;42.808;23.408;2022-09-14T05:00:34;12.90;;;8.70;;
24279;SDS011;12395;42.808;23.408;2022-09-14T05:03:00;11.63;;;8.02;;
24279;SDS011;12395;42.808;23.408;2022-09-14T05:05:26;13.23;;;8.47;;
24279;SDS011;12395;42.808;23.408;2022-09-14T05:07:52;10.20;;;7.70;;
24279;SDS011;12395;42.808;23.408;2022-09-14T05:10:17;11.15;;;8.10;;
24279;SDS011;12395;42.808;23.408;2022-09-14T05:12:43;12.20;;;8.50;;
24279;SDS011;12395;42.808;23.408;2022-09-14T05:15:08;12.05;;;8.68;;
24279;SDS011;12395;42.808;23.408;2022-09-14T05:17:34;12.93;;;9.02;;
24279;SDS011;12395;42.808;23.408;2022-09-14T05:20:00;12.85;;;9.20;;
24279;SDS011;12395;42.808;23.408;2022-09-14T05:22:26;11.93;;;9.10;;
24279;SDS011;12395;42.808;23.408;2022-09-14T05:24:51;11.98;;;8.43;;
24279;SDS011;12395;42.808;23.408;2022-09-14T05:27:16;10.32;;;8.05;;
24279;SDS011;12395;42.808;23.408;2022-09-14T05:29:42;10.38;;;7.72;;
24279;SDS011;12395;42.808;23.408;2022-09-14T05:32:07;10.73;;;7.50;;
24279;SDS011;12395;42.808;23.408;2022-09-14T05:34:35;11.63;;;8.23;;
24279;SDS011;12395;42.808;23.408;2022-09-14T05:37:01;12.88;;;8.48;;
24279;SDS011;12395;42.808;23.408;2022-09-14T05:39:26;11.27;;;8.30;;
24279;SDS011;12395;42.808;23.408;2022-09-14T05:41:52;11.65;;;8.43;;
24279;SDS011;12395;42.808;23.408;2022-09-14T05:44:17;12.35;;;8.20;;
24279;SDS011;12395;42.808;23.408;2022-09-14T05:46:43;12.02;;;8.35;;
24279;SDS011;12395;42.808;23.408;2022-09-14T05:49:08;12.70;;;8.20;;
24279;SDS011;12395;42.808;23.408;2022-09-14T05:51:33;12.43;;;8.10;;
24279;SDS011;12395;42.808;23.408;2022-09-14T05:53:59;11.25;;;8.50;;
24279;SDS011;12395;42.808;23.408;2022-09-14T05:56:26;11.82;;;8.30;;
24279;SDS011;12395;42.808;23.408;2022-09-14T05:58:53;11.73;;;8.82;;
24279;SDS011;12395;42.808;23.408;2022-09-14T06:01:26;10.98;;;8.20;;
24279;SDS011;12395;42.808;23.408;2022-09-14T06:03:56;11.27;;;8.30;;
24279;SDS011;12395;42.808;23.408;2022-09-14T06:06:24;11.48;;;8.07;;
24279;SDS011;12395;42.808;23.408;2022-09-14T06:08:50;14.02;;;8.88;;
24279;SDS011;12395;42.808;23.408;2022-09-14T06:13:51;11.52;;;8.38;;
24279;SDS011;12395;42.808;23.408;2022-09-14T06:16:19;12.73;;;8.32;;
24279;SDS011;12395;42.808;23.408;2022-09-14T06:18:45;12.88;;;8.40;;
24279;SDS011;12395;42.808;23.408;2022-09-14T06:21:12;12.63;;;8.18;;
24279;SDS011;12395;42.808;23.408;2022-09-14T06:23:43;11.07;;;8.32;;
24279;SDS011;12395;42.808;23.408;2022-09-14T06:26:09;11.95;;;8.82;;
24279;SDS011;12395;42.808;23.408;2022-09-14T06:28:35;12.57;;;8.80;;
24279;SDS011;12395;42.808;23.408;2022-09-14T06:31:01;14.15;;;9.65;;
24279;SDS011;12395;42.808;23.408;2022-09-14T06:35:54;11.63;;;9.00;;
24279;SDS011;12395;42.808;23.408;2022-09-14T06:38:25;12.00;;;9.18;;
24279;SDS011;12395;42.808;23.408;2022-09-14T06:40:55;12.07;;;9.07;;
24279;SDS011;12395;42.808;23.408;2022-09-14T06:43:26;12.65;;;9.65;;
24279;SDS011;12395;42.808;23.408;2022-09-14T06:46:15;11.70;;;8.25;;
24279;SDS011;12395;42.808;23.408;2022-09-14T06:48:44;12.90;;;8.52;;
24279;SDS011;12395;42.808;23.408;2022-09-14T06:51:22;12.00;;;8.75;;
24279;SDS011;12395;42.808;23.408;2022-09-14T06:53:49;11.85;;;8.52;;
24279;SDS011;12395;42.808;23.408;2022-09-14T06:56:16;11.45;;;8.48;;
24279;SDS011;12395;42.808;23.408;2022-09-14T06:58:42;13.57;;;8.73;;
24279;SDS011;12395;42.808;23.408;2022-09-14T07:01:13;12.43;;;8.90;;
24279;SDS011;12395;42.808;23.408;2022-09-14T07:03:39;12.15;;;8.48;;
24279;SDS011;12395;42.808;23.408;2022-09-14T07:06:11;11.05;;;7.82;;
24279;SDS011;12395;42.808;23.408;2022-09-14T07:08:42;10.98;;;8.00;;
24279;SDS011;12395;42.808;23.408;2022-09-14T07:11:09;12.93;;;7.85;;
24279;SDS011;12395;42.808;23.408;2022-09-14T07:13:35;11.00;;;7.40;;
24279;SDS011;12395;42.808;23.408;2022-09-14T07:16:01;10.07;;;7.15;;
24279;SDS011;12395;42.808;23.408;2022-09-14T07:21:49;11.40;;;7.80;;
24279;SDS011;12395;42.808;23.408;2022-09-14T07:24:14;10.77;;;7.22;;
24279;SDS011;12395;42.808;23.408;2022-09-14T07:26:40;10.68;;;7.22;;
24279;SDS011;12395;42.808;23.408;2022-09-14T07:29:16;10.23;;;6.70;;
24279;SDS011;12395;42.808;23.408;2022-09-14T07:31:52;10.95;;;6.75;;
24279;SDS011;12395;42.808;23.408;2022-09-14T07:34:18;10.23;;;7.32;;
24279;SDS011;12395;42.808;23.408;2022-09-14T07:36:44;10.75;;;7.28;;
24279;SDS011;12395;42.808;23.408;2022-09-14T07:39:12;9.82;;;7.20;;
24279;SDS011;12395;42.808;23.408;2022-09-14T07:41:39;12.52;;;7.90;;
24279;SDS011;12395;42.808;23.408;2022-09-14T07:44:06;9.02;;;6.65;;
24279;SDS011;12395;42.808;23.408;2022-09-14T07:46:36;10.70;;;6.88;;
24279;SDS011;12395;42.808;23.408;2022-09-14T07:49:04;10.40;;;6.93;;
24279;SDS011;12395;42.808;23.408;2022-09-14T07:51:31;9.88;;;6.45;;
24279;SDS011;12395;42.808;23.408;2022-09-14T07:56:25;10.65;;;6.55;;
24279;SDS011;12395;42.808;23.408;2022-09-14T07:58:52;10.60;;;6.70;;
24279;SDS011;12395;42.808;23.408;2022-09-14T08:01:20;8.02;;;5.70;;
24279;SDS011;12395;42.808;23.408;2022-09-14T08:03:46;15.40;;;6.05;;
24279;SDS011;12395;42.808;23.408;2022-09-14T08:06:16;9.27;;;5.97;;
24279;SDS011;12395;42.808;23.408;2022-09-14T08:08:47;9.32;;;5.55;;
24279;SDS011;12395;42.808;23.408;2022-09-14T08:11:18;9.02;;;5.07;;
24279;SDS011;12395;42.808;23.408;2022-09-14T08:13:48;8.95;;;5.05;;
24279;SDS011;12395;42.808;23.408;2022-09-14T08:16:16;7.95;;;5.03;;
24279;SDS011;12395;42.808;23.408;2022-09-14T08:18:43;11.85;;;5.25;;
24279;SDS011;12395;42.808;23.408;2022-09-14T08:21:10;9.02;;;5.53;;
24279;SDS011;12395;42.808;23.408;2022-09-14T08:23:37;6.50;;;4.30;;
24279;SDS011;12395;42.808;23.408;2022-09-14T08:26:07;7.07;;;4.20;;
24279;SDS011;12395;42.808;23.408;2022-09-14T08:28:34;6.35;;;4.00;;
24279;SDS011;12395;42.808;23.408;2022-09-14T08:31:08;7.15;;;4.38;;
24279;SDS011;12395;42.808;23.408;2022-09-14T08:33:35;6.25;;;3.88;;
24279;SDS011;12395;42.808;23.408;2022-09-14T08:36:05;7.35;;;4.38;;
24279;SDS011;12395;42.808;23.408;2022-09-14T08:40:57;7.20;;;4.30;;
24279;SDS011;12395;42.808;23.408;2022-09-14T08:43:29;6.88;;;4.07;;
24279;SDS011;12395;42.808;23.408;2022-09-14T08:45:59;5.57;;;3.78;;
24279;SDS011;12395;42.808;23.408;2022-09-14T08:48:29;7.00;;;4.20;;
24279;SDS011;12395;42.808;23.408;2022-09-14T08:50:58;7.28;;;3.80;;
24279;SDS011;12395;42.808;23.408;2022-09-14T08:53:24;7.10;;;4.40;;
24279;SDS011;12395;42.808;23.408;2022-09-14T08:55:52;7.88;;;3.40;;
24279;SDS011;12395;42.808;23.408;2022-09-14T09:06:23;5.50;;;3.58;;
24279;SDS011;12395;42.808;23.408;2022-09-14T09:09:02;4.95;;;3.65;;
24279;SDS011;12395;42.808;23.408;2022-09-14T09:11:40;7.10;;;3.63;;
24279;SDS011;12395;42.808;23.408;2022-09-14T09:16:52;7.03;;;3.90;;
24279;SDS011;12395;42.808;23.408;2022-09-14T09:19:25;5.25;;;3.80;;
24279;SDS011;12395;42.808;23.408;2022-09-14T09:21:58;7.15;;;3.95;;
24279;SDS011;12395;42.808;23.408;2022-09-14T09:24:32;7.97;;;3.97;;
24279;SDS011;12395;42.808;23.408;2022-09-14T09:27:04;4.80;;;3.35;;
24279;SDS011;12395;42.808;23.408;2022-09-14T09:29:33;8.90;;;3.78;;
24279;SDS011;12395;42.808;23.408;2022-09-14T09:31:59;5.35;;;3.60;;
24279;SDS011;12395;42.808;23.408;2022-09-14T09:34:25;6.80;;;3.50;;
24279;SDS011;12395;42.808;23.408;2022-09-14T09:36:52;4.80;;;3.30;;
24279;SDS011;12395;42.808;23.408;2022-09-14T09:39:20;4.13;;;3.30;;
24279;SDS011;12395;42.808;23.408;2022-09-14T09:42:22;5.82;;;3.35;;
24279;SDS011;12395;42.808;23.408;2022-09-14T09:45:04;5.60;;;3.20;;
24279;SDS011;12395;42.808;23.408;2022-09-14T09:50:03;5.72;;;3.05;;
24279;SDS011;12395;42.808;23.408;2022-09-14T09:52:30;3.58;;;2.90;;
24279;SDS011;12395;42.808;23.408;2022-09-14T09:54:57;6.80;;;2.70;;
24279;SDS011;12395;42.808;23.408;2022-09-14T10:00:16;3.45;;;2.90;;
24279;SDS011;12395;42.808;23.408;2022-09-14T10:02:42;4.20;;;2.88;;
24279;SDS011;12395;42.808;23.408;2022-09-14T10:07:34;5.75;;;2.50;;
24279;SDS011;12395;42.808;23.408;2022-09-14T10:10:08;5.03;;;2.70;;
24279;SDS011;12395;42.808;23.408;2022-09-14T10:12:38;4.03;;;2.80;;
24279;SDS011;12395;42.808;23.408;2022-09-14T10:15:15;5.68;;;2.90;;
24279;SDS011;12395;42.808;23.408;2022-09-14T10:20:27;6.38;;;2.80;;
24279;SDS011;12395;42.808;23.408;2022-09-14T10:22:53;3.60;;;2.60;;
24279;SDS011;12395;42.808;23.408;2022-09-14T10:30:24;3.45;;;2.30;;
24279;SDS011;12395;42.808;23.408;2022-09-14T10:41:16;3.22;;;2.20;;
24279;SDS011;12395;42.808;23.408;2022-09-14T10:46:23;2.58;;;1.90;;
24279;SDS011;12395;42.808;23.408;2022-09-14T10:57:21;2.08;;;1.77;;
24279;SDS011;12395;42.808;23.408;2022-09-14T11:00:05;3.05;;;1.95;;
24279;SDS011;12395;42.808;23.408;2022-09-14T11:06:04;2.95;;;1.67;;
24279;SDS011;12395;42.808;23.408;2022-09-14T11:08:45;3.00;;;1.88;;
24279;SDS011;12395;42.808;23.408;2022-09-14T11:11:32;2.50;;;1.60;;
24279;SDS011;12395;42.808;23.408;2022-09-14T11:19:57;2.10;;;1.83;;
24279;SDS011;12395;42.808;23.408;2022-09-14T11:28:04;2.92;;;1.75;;
24279;SDS011;12395;42.808;23.408;2022-09-14T11:36:06;1.98;;;1.63;;
24279;SDS011;12395;42.808;23.408;2022-09-14T11:38:56;2.72;;;1.80;;
24279;SDS011;12395;42.808;23.408;2022-09-14T11:41:30;3.30;;;1.90;;
24279;SDS011;12395;42.808;23.408;2022-09-14T11:46:59;3.10;;;2.00;;
24279;SDS011;12395;42.808;23.408;2022-09-14T11:52:31;3.25;;;1.85;;
24279;SDS011;12395;42.808;23.408;2022-09-14T11:54:58;2.33;;;1.75;;
24279;SDS011;12395;42.808;23.408;2022-09-14T11:57:29;2.10;;;1.90;;
24279;SDS011;12395;42.808;23.408;2022-09-14T12:17:50;3.13;;;1.70;;
24279;SDS011;12395;42.808;23.408;2022-09-14T12:20:19;2.70;;;1.83;;
24279;SDS011;12395;42.808;23.408;2022-09-14T12:22:50;3.38;;;1.88;;
24279;SDS011;12395;42.808;23.408;2022-09-14T12:25:27;2.97;;;2.07;;
24279;SDS011;12395;42.808;23.408;2022-09-14T12:27:53;3.28;;;1.80;;
24279;SDS011;12395;42.808;23.408;2022-09-14T12:33:02;2.30;;;2.00;;
24279;SDS011;12395;42.808;23.408;2022-09-14T12:35:48;2.28;;;1.60;;
24279;SDS011;12395;42.808;23.408;2022-09-14T12:40:58;1.98;;;1.67;;
24279;SDS011;12395;42.808;23.408;2022-09-14T12:53:56;2.00;;;1.70;;
24279;SDS011;12395;42.808;23.408;2022-09-14T12:56:31;2.38;;;1.70;;
24279;SDS011;12395;42.808;23.408;2022-09-14T12:59:21;2.22;;;1.70;;
24279;SDS011;12395;42.808;23.408;2022-09-14T13:04:31;4.00;;;1.70;;
24279;SDS011;12395;42.808;23.408;2022-09-14T13:06:59;2.08;;;1.55;;
24279;SDS011;12395;42.808;23.408;2022-09-14T13:09:27;1.90;;;1.50;;
24279;SDS011;12395;42.808;23.408;2022-09-14T13:12:00;1.48;;;1.30;;
24279;SDS011;12395;42.808;23.408;2022-09-14T13:14:33;2.80;;;1.40;;
24279;SDS011;12395;42.808;23.408;2022-09-14T13:17:10;2.35;;;1.42;;
24279;SDS011;12395;42.808;23.408;2022-09-14T13:19:38;3.83;;;1.65;;
24279;SDS011;12395;42.808;23.408;2022-09-14T13:22:13;2.65;;;1.65;;
24279;SDS011;12395;42.808;23.408;2022-09-14T13:24:43;1.73;;;1.40;;
24279;SDS011;12395;42.808;23.408;2022-09-14T13:32:29;2.25;;;1.50;;
24279;SDS011;12395;42.808;23.408;2022-09-14T13:37:22;2.10;;;1.60;;
24279;SDS011;12395;42.808;23.408;2022-09-14T13:39:50;4.45;;;1.50;;
24279;SDS011;12395;42.808;23.408;2022-09-14T13:42:17;2.60;;;1.40;;
24279;SDS011;12395;42.808;23.408;2022-09-14T13:44:43;1.63;;;1.40;;
24279;SDS011;12395;42.808;23.408;2022-09-14T13:47:14;3.10;;;1.95;;
24279;SDS011;12395;42.808;23.408;2022-09-14T13:49:41;3.40;;;1.60;;
24279;SDS011;12395;42.808;23.408;2022-09-14T13:52:22;3.33;;;1.55;;
24279;SDS011;12395;42.808;23.408;2022-09-14T13:57:21;3.50;;;1.70;;
24279;SDS011;12395;42.808;23.408;2022-09-14T14:02:51;2.65;;;1.20;;
24279;SDS011;12395;42.808;23.408;2022-09-14T14:05:22;2.55;;;1.30;;
24279;SDS011;12395;42.808;23.408;2022-09-14T14:07:48;3.40;;;1.20;;
24279;SDS011;12395;42.808;23.408;2022-09-14T14:10:21;1.60;;;1.15;;
24279;SDS011;12395;42.808;23.408;2022-09-14T14:12:48;2.83;;;1.27;;
24279;SDS011;12395;42.808;23.408;2022-09-14T14:17:42;3.85;;;1.50;;
24279;SDS011;12395;42.808;23.408;2022-09-14T14:23:11;3.70;;;1.58;;
24279;SDS011;12395;42.808;23.408;2022-09-14T14:25:51;9.25;;;1.70;;
24279;SDS011;12395;42.808;23.408;2022-09-14T14:30:55;2.45;;;1.30;;
24279;SDS011;12395;42.808;23.408;2022-09-14T14:33:21;2.20;;;1.67;;
24279;SDS011;12395;42.808;23.408;2022-09-14T14:35:48;4.70;;;1.40;;
24279;SDS011;12395;42.808;23.408;2022-09-14T14:38:18;15.45;;;7.28;;
24279;SDS011;12395;42.808;23.408;2022-09-14T14:40:46;9.10;;;5.28;;
24279;SDS011;12395;42.808;23.408;2022-09-14T14:43:17;5.18;;;2.97;;
24279;SDS011;12395;42.808;23.408;2022-09-14T14:45:53;6.93;;;5.00;;
24279;SDS011;12395;42.808;23.408;2022-09-14T14:48:20;17.17;;;10.18;;
24279;SDS011;12395;42.808;23.408;2022-09-14T14:50:47;4.15;;;1.55;;
24279;SDS011;12395;42.808;23.408;2022-09-14T14:53:13;9.80;;;4.57;;
24279;SDS011;12395;42.808;23.408;2022-09-14T14:55:38;6.85;;;2.70;;
24279;SDS011;12395;42.808;23.408;2022-09-14T14:58:05;6.97;;;2.38;;
24279;SDS011;12395;42.808;23.408;2022-09-14T15:00:34;4.70;;;2.53;;
24279;SDS011;12395;42.808;23.408;2022-09-14T15:05:26;4.78;;;1.90;;
24279;SDS011;12395;42.808;23.408;2022-09-14T15:07:51;2.53;;;1.60;;
24279;SDS011;12395;42.808;23.408;2022-09-14T15:10:19;5.28;;;3.08;;
24279;SDS011;12395;42.808;23.408;2022-09-14T15:12:46;2.45;;;1.50;;
24279;SDS011;12395;42.808;23.408;2022-09-14T15:15:16;3.15;;;1.80;;
24279;SDS011;12395;42.808;23.408;2022-09-14T15:17:43;2.08;;;1.50;;
24279;SDS011;12395;42.808;23.408;2022-09-14T15:20:09;3.42;;;1.40;;
24279;SDS011;12395;42.808;23.408;2022-09-14T15:22:35;3.57;;;1.60;;
24279;SDS011;12395;42.808;23.408;2022-09-14T15:25:01;3.35;;;2.10;;
24279;SDS011;12395;42.808;23.408;2022-09-14T15:27:28;2.97;;;1.35;;
24279;SDS011;12395;42.808;23.408;2022-09-14T15:29:53;1.85;;;1.60;;
24279;SDS011;12395;42.808;23.408;2022-09-14T15:32:19;2.38;;;1.60;;
24279;SDS011;12395;42.808;23.408;2022-09-14T15:34:44;2.67;;;1.30;;
24279;SDS011;12395;42.808;23.408;2022-09-14T15:37:11;4.43;;;1.70;;
24279;SDS011;12395;42.808;23.408;2022-09-14T15:39:37;2.83;;;1.63;;
24279;SDS011;12395;42.808;23.408;2022-09-14T15:42:02;4.32;;;1.58;;
24279;SDS011;12395;42.808;23.408;2022-09-14T15:44:28;3.50;;;1.80;;
24279;SDS011;12395;42.808;23.408;2022-09-14T15:46:55;5.22;;;2.03;;
24279;SDS011;12395;42.808;23.408;2022-09-14T15:49:21;3.20;;;1.30;;
24279;SDS011;12395;42.808;23.408;2022-09-14T15:51:48;5.45;;;1.40;;
24279;SDS011;12395;42.808;23.408;2022-09-14T15:54:16;2.08;;;1.50;;
24279;SDS011;12395;42.808;23.408;2022-09-14T15:56:42;2.13;;;1.27;;
24279;SDS011;12395;42.808;23.408;2022-09-14T15:59:13;1.35;;;1.10;;
24279;SDS011;12395;42.808;23.408;2022-09-14T16:01:39;1.60;;;1.45;;
24279;SDS011;12395;42.808;23.408;2022-09-14T16:04:05;2.88;;;1.27;;
24279;SDS011;12395;42.808;23.408;2022-09-14T16:08:59;2.13;;;1.48;;
24279;SDS011;12395;42.808;23.408;2022-09-14T16:11:29;4.35;;;1.50;;
24279;SDS011;12395;42.808;23.408;2022-09-14T16:13:55;1.88;;;1.40;;
24279;SDS011;12395;42.808;23.408;2022-09-14T16:16:20;2.00;;;1.45;;
24279;SDS011;12395;42.808;23.408;2022-09-14T16:18:46;4.93;;;1.88;;
24279;SDS011;12395;42.808;23.408;2022-09-14T16:23:51;2.50;;;1.60;;
24279;SDS011;12395;42.808;23.408;2022-09-14T16:26:22;4.20;;;2.20;;
24279;SDS011;12395;42.808;23.408;2022-09-14T16:28:49;2.97;;;1.73;;
24279;SDS011;12395;42.808;23.408;2022-09-14T16:31:20;3.72;;;1.60;;
24279;SDS011;12395;42.808;23.408;2022-09-14T16:33:49;3.28;;;1.58;;
24279;SDS011;12395;42.808;23.408;2022-09-14T16:36:18;4.07;;;1.40;;
24279;SDS011;12395;42.808;23.408;2022-09-14T16:38:46;1.60;;;1.40;;
24279;SDS011;12395;42.808;23.408;2022-09-14T16:41:12;1.75;;;1.40;;
24279;SDS011;12395;42.808;23.408;2022-09-14T16:43:38;3.05;;;1.30;;
24279;SDS011;12395;42.808;23.408;2022-09-14T16:48:41;1.75;;;1.50;;
24279;SDS011;12395;42.808;23.408;2022-09-14T16:51:07;2.58;;;1.70;;
24279;SDS011;12395;42.808;23.408;2022-09-14T16:53:34;4.00;;;1.55;;
24279;SDS011;12395;42.808;23.408;2022-09-14T16:56:05;3.65;;;1.52;;
24279;SDS011;12395;42.808;23.408;2022-09-14T16:58:35;2.50;;;1.60;;
24279;SDS011;12395;42.808;23.408;2022-09-14T17:03:31;3.22;;;1.60;;
24279;SDS011;12395;42.808;23.408;2022-09-14T17:06:05;1.70;;;1.33;;
24279;SDS011;12395;42.808;23.408;2022-09-14T17:08:33;1.67;;;1.58;;
24279;SDS011;12395;42.808;23.408;2022-09-14T17:10:59;1.73;;;1.40;;
24279;SDS011;12395;42.808;23.408;2022-09-14T17:13:26;3.83;;;1.60;;
24279;SDS011;12395;42.808;23.408;2022-09-14T17:15:58;2.90;;;1.40;;
24279;SDS011;12395;42.808;23.408;2022-09-14T17:18:25;3.10;;;1.35;;
24279;SDS011;12395;42.808;23.408;2022-09-14T17:20:54;2.17;;;1.65;;
24279;SDS011;12395;42.808;23.408;2022-09-14T17:23:25;1.50;;;1.40;;
24279;SDS011;12395;42.808;23.408;2022-09-14T17:25:50;2.55;;;1.40;;
24279;SDS011;12395;42.808;23.408;2022-09-14T17:28:16;4.88;;;1.40;;
24279;SDS011;12395;42.808;23.408;2022-09-14T17:30:43;3.10;;;1.50;;
24279;SDS011;12395;42.808;23.408;2022-09-14T17:33:09;1.73;;;1.50;;
24279;SDS011;12395;42.808;23.408;2022-09-14T17:35:34;1.55;;;1.38;;
24279;SDS011;12395;42.808;23.408;2022-09-14T17:38:00;3.28;;;1.75;;
24279;SDS011;12395;42.808;23.408;2022-09-14T17:40:28;4.47;;;1.38;;
24279;SDS011;12395;42.808;23.408;2022-09-14T17:42:53;1.90;;;1.50;;
24279;SDS011;12395;42.808;23.408;2022-09-14T17:45:19;2.65;;;1.48;;
24279;SDS011;12395;42.808;23.408;2022-09-14T17:47:44;1.65;;;1.40;;